createdAt,value
2022-11-15T00:00:08.598Z,58.25
2022-11-15T00:02:54.666Z,58.14
2022-11-15T00:05:40.787Z,58.63
2022-11-15T00:08:30.186Z,58.71
2022-11-15T00:11:15.995Z,58.64
2022-11-15T00:14:03.762Z,58.55
2022-11-15T00:16:49.717Z,58.68
2022-11-15T00:19:36.388Z,59.01
2022-11-15T00:22:22.757Z,59.09
2022-11-15T00:25:09.221Z,59.12
2022-11-15T00:27:59.650Z,59.14
2022-11-15T00:30:46.062Z,59.22
2022-11-15T00:33:45.626Z,59.19
2022-11-15T00:36:34.580Z,59.25
2022-11-15T00:39:20.495Z,59.23
2022-11-15T00:42:06.514Z,59.51
2022-11-15T00:44:52.627Z,59.73
2022-11-15T00:47:38.598Z,59.72
2022-11-15T00:50:24.682Z,60.11
2022-11-15T00:53:12.735Z,59.96
2022-11-15T00:55:59.153Z,60.06
2022-11-15T00:58:45.338Z,60.38
2022-11-15T01:01:31.304Z,59.97
2022-11-15T01:04:17.280Z,60.19
2022-11-15T01:07:03.355Z,60.31
2022-11-15T01:09:49.690Z,60.22
2022-11-15T01:12:36.499Z,60.23
2022-11-15T01:15:22.521Z,60.15
2022-11-15T01:18:09.203Z,60.04
2022-11-15T01:20:55.038Z,60.10
2022-11-15T01:23:40.936Z,60.18
2022-11-15T01:26:27.218Z,60.27
2022-11-15T01:29:14.308Z,60.30
2022-11-15T01:32:00.270Z,60.14
2022-11-15T01:34:46.322Z,59.97
2022-11-15T01:37:32.445Z,59.84
2022-11-15T01:40:19.032Z,59.71
2022-11-15T01:43:29.267Z,59.62
2022-11-15T01:46:33.952Z,59.76
2022-11-15T01:49:22.948Z,59.77
2022-11-15T01:52:14.706Z,59.74
2022-11-15T01:55:12.328Z,59.75
2022-11-15T01:58:03.799Z,59.69
2022-11-15T02:00:51.331Z,59.83
2022-11-15T02:03:47.970Z,60.24
2022-11-15T02:06:37.452Z,60.66
2022-11-15T02:09:24.735Z,60.17
2022-11-15T02:12:14.176Z,60.51
2022-11-15T02:15:02.867Z,60.55
2022-11-15T02:18:19.514Z,60.51
2022-11-15T02:21:05.243Z,60.43
2022-11-15T02:24:26.167Z,60.64
2022-11-15T02:27:48.390Z,60.81
2022-11-15T02:31:07.489Z,60.62
2022-11-15T02:34:36.422Z,60.96
2022-11-15T02:37:38.131Z,60.88
2022-11-15T02:40:47.278Z,60.97
2022-11-15T02:44:00.967Z,61.00
2022-11-15T02:47:16.754Z,61.06
2022-11-15T02:50:10.901Z,61.15
2022-11-15T02:52:57.175Z,60.96
2022-11-15T02:55:48.493Z,61.06
2022-11-15T02:59:01.507Z,60.93
2022-11-15T03:02:38.061Z,60.79
2022-11-15T03:05:47.403Z,61.15
2022-11-15T03:08:40.737Z,61.38
2022-11-15T03:11:27.202Z,61.02
2022-11-15T03:14:15.900Z,61.29
2022-11-15T03:17:13.153Z,61.17
2022-11-15T03:20:03.150Z,60.95
2022-11-15T03:22:51.154Z,60.93
2022-11-15T03:25:41.949Z,60.94
2022-11-15T03:28:36.747Z,61.43
2022-11-15T03:31:48.613Z,61.35
2022-11-15T03:34:55.972Z,61.48
2022-11-15T03:37:59.200Z,61.43
2022-11-15T03:41:07.150Z,61.56
2022-11-15T03:44:06.044Z,61.48
2022-11-15T03:47:07.210Z,61.63
2022-11-15T03:50:00.916Z,63.76
2022-11-15T03:52:49.147Z,61.28
2022-11-15T03:55:35.201Z,61.10
2022-11-15T03:58:27.684Z,60.91
2022-11-15T04:01:14.031Z,61.06
2022-11-15T04:04:00.963Z,60.78
2022-11-15T04:06:46.961Z,60.83
2022-11-15T04:09:34.426Z,60.46
2022-11-15T04:12:34.742Z,60.54
2022-11-15T04:15:24.792Z,60.66
2022-11-15T04:18:10.781Z,60.49
2022-11-15T04:21:15.749Z,60.59
2022-11-15T04:24:13.721Z,60.42
2022-11-15T04:27:07.829Z,60.33
2022-11-15T04:29:54.253Z,60.36
2022-11-15T04:32:40.376Z,60.32
2022-11-15T04:35:31.184Z,60.51
2022-11-15T04:38:20.237Z,60.46
2022-11-15T04:41:08.207Z,60.40
2022-11-15T04:44:04.427Z,60.47
2022-11-15T04:46:50.826Z,60.37
2022-11-15T04:49:36.933Z,60.25
2022-11-15T04:52:23.625Z,60.22
2022-11-15T04:55:11.427Z,60.48
2022-11-15T04:58:07.836Z,60.26
2022-11-15T05:00:54.005Z,60.21
2022-11-15T05:03:58.242Z,60.30
2022-11-15T05:06:44.346Z,60.22
2022-11-15T05:09:30.128Z,60.47
2022-11-15T05:12:15.990Z,60.09
2022-11-15T05:15:02.373Z,60.29
2022-11-15T05:17:48.110Z,60.30
2022-11-15T05:20:34.614Z,60.53
2022-11-15T05:23:20.259Z,60.58
2022-11-15T05:26:09.449Z,60.80
2022-11-15T05:28:59.742Z,60.81
2022-11-15T05:31:45.828Z,61.12
2022-11-15T05:34:31.933Z,61.04
2022-11-15T05:37:18.441Z,60.93
2022-11-15T05:40:05.037Z,60.95
2022-11-15T05:42:51.065Z,60.83
2022-11-15T05:45:38.162Z,60.77
2022-11-15T05:48:24.456Z,61.03
2022-11-15T05:51:10.952Z,60.86
2022-11-15T05:53:59.514Z,60.94
2022-11-15T05:56:46.137Z,61.16
2022-11-15T05:59:33.132Z,61.25
2022-11-15T06:02:23.199Z,61.28
2022-11-15T06:05:11.880Z,61.21
2022-11-15T06:08:01.276Z,61.25
2022-11-15T06:10:47.148Z,61.27
2022-11-15T06:13:34.012Z,61.75
2022-11-15T06:16:20.623Z,61.56
2022-11-15T06:19:08.867Z,61.64
2022-11-15T06:21:54.885Z,61.87
2022-11-15T06:24:40.829Z,62.01
2022-11-15T06:27:26.911Z,62.03
2022-11-15T06:30:12.755Z,62.17
2022-11-15T06:33:06.555Z,62.44
2022-11-15T06:35:52.477Z,62.28
2022-11-15T06:38:38.554Z,61.98
2022-11-15T06:41:24.221Z,62.05
2022-11-15T06:44:10.735Z,62.28
2022-11-15T06:46:56.756Z,62.29
2022-11-15T06:49:42.624Z,62.30
2022-11-15T06:52:33.881Z,62.38
2022-11-15T06:55:25.128Z,62.47
2022-11-15T06:58:11.235Z,62.53
2022-11-15T07:01:10.068Z,62.83
2022-11-15T07:03:55.728Z,62.68
2022-11-15T07:07:00.270Z,62.68
2022-11-15T07:09:49.174Z,62.60
2022-11-15T07:12:50.558Z,62.76
2022-11-15T07:15:36.716Z,62.66
2022-11-15T07:18:22.950Z,62.78
2022-11-15T07:21:11.092Z,62.63
2022-11-15T07:23:56.881Z,62.67
2022-11-15T07:26:45.197Z,62.31
2022-11-15T07:29:31.828Z,62.45
2022-11-15T07:32:18.370Z,62.19
2022-11-15T07:35:04.131Z,61.96
2022-11-15T07:37:56.268Z,63.60
2022-11-15T07:40:42.429Z,62.16
2022-11-15T07:43:31.377Z,62.70
2022-11-15T07:46:17.986Z,61.75
2022-11-15T07:49:04.822Z,63.10
2022-11-15T07:51:53.447Z,63.47
2022-11-15T07:54:40.571Z,61.87
2022-11-15T07:57:27.193Z,61.34
2022-11-15T08:00:27.719Z,61.15
2022-11-15T08:03:22.373Z,61.07
2022-11-15T08:06:09.650Z,61.07
2022-11-15T08:09:10.047Z,61.24
2022-11-15T08:11:57.572Z,61.25
2022-11-15T08:14:48.219Z,61.31
2022-11-15T08:17:35.310Z,60.96
2022-11-15T08:20:21.634Z,60.94
2022-11-15T08:23:09.224Z,60.82
2022-11-15T08:26:06.171Z,60.52
2022-11-15T08:28:52.637Z,60.75
2022-11-15T08:31:42.136Z,60.51
2022-11-15T08:34:28.429Z,60.64
2022-11-15T08:37:14.811Z,60.80
2022-11-15T08:40:01.108Z,60.07
2022-11-15T08:42:50.462Z,60.46
2022-11-15T08:45:37.589Z,60.63
2022-11-15T08:48:24.494Z,60.37
2022-11-15T08:51:10.748Z,59.52
2022-11-15T08:53:56.578Z,59.27
2022-11-15T08:56:45.663Z,58.85
2022-11-15T08:59:32.651Z,58.70
2022-11-15T09:02:19.357Z,58.58
2022-11-15T09:05:06.140Z,58.67
2022-11-15T09:07:55.954Z,58.03
2022-11-15T09:10:42.664Z,57.81
2022-11-15T09:13:29.006Z,57.81
2022-11-15T09:16:29.985Z,57.81
2022-11-15T09:19:27.726Z,57.46
2022-11-15T09:22:13.679Z,57.47
2022-11-15T09:25:09.910Z,56.56
2022-11-15T09:28:01.394Z,56.91
2022-11-15T09:30:50.407Z,56.16
2022-11-15T09:33:37.209Z,56.58
2022-11-15T09:36:24.148Z,55.75
2022-11-15T09:39:10.724Z,55.87
2022-11-15T09:42:14.955Z,55.68
2022-11-15T09:45:21.342Z,54.69
2022-11-15T09:48:44.949Z,55.02
2022-11-15T09:51:50.159Z,55.01
2022-11-15T09:57:54.044Z,54.90
2022-11-15T10:00:45.843Z,54.72
2022-11-15T10:03:19.289Z,54.57
2022-11-15T10:05:49.361Z,54.40
2022-11-15T10:08:30.117Z,54.19
2022-11-15T10:11:39.647Z,53.89
2022-11-15T10:14:03.695Z,53.92
2022-11-15T10:17:06.003Z,54.21
2022-11-15T10:19:38.200Z,54.15
2022-11-15T10:22:17.528Z,53.47
2022-11-15T10:24:47.338Z,53.27
2022-11-15T10:27:20.314Z,53.11
2022-11-15T10:29:50.334Z,52.43
2022-11-15T10:32:23.343Z,53.06
2022-11-15T10:34:51.773Z,51.78
2022-11-15T10:37:33.183Z,51.36
2022-11-15T10:40:16.605Z,50.46
2022-11-15T10:42:44.278Z,50.42
2022-11-15T10:45:33.270Z,50.88
2022-11-15T10:48:15.471Z,50.74
2022-11-15T10:50:46.011Z,49.89
2022-11-15T10:53:22.661Z,49.63
2022-11-15T10:55:52.977Z,49.18
2022-11-15T10:58:32.818Z,49.27
2022-11-15T11:01:21.899Z,48.63
2022-11-15T11:04:05.828Z,48.99
2022-11-15T11:06:51.779Z,49.53
2022-11-15T11:09:25.532Z,49.49
2022-11-15T11:11:53.881Z,49.69
2022-11-15T11:14:24.808Z,49.36
2022-11-15T11:17:07.578Z,48.32
2022-11-15T11:19:54.935Z,48.37
2022-11-15T11:22:37.930Z,48.87
2022-11-15T11:25:23.923Z,47.91
2022-11-15T11:27:57.507Z,48.31
2022-11-15T11:30:52.191Z,47.73
2022-11-15T11:33:29.387Z,47.99
2022-11-15T11:36:15.604Z,48.06
2022-11-15T11:39:07.244Z,47.98
2022-11-15T11:42:06.528Z,47.17
2022-11-15T11:44:36.619Z,47.95
2022-11-15T11:47:24.458Z,47.77
2022-11-15T11:50:03.929Z,47.96
2022-11-15T11:52:35.969Z,47.66
2022-11-15T11:55:07.785Z,47.60
2022-11-15T11:57:55.311Z,47.84
2022-11-15T12:00:25.301Z,47.49
2022-11-15T12:03:07.482Z,47.51
2022-11-15T12:06:27.571Z,47.47
2022-11-15T12:09:19.285Z,46.78
2022-11-15T12:12:29.791Z,46.74
2022-11-15T12:15:05.802Z,46.76
2022-11-15T12:17:33.944Z,46.66
2022-11-15T12:20:05.841Z,46.01
2022-11-15T12:22:51.467Z,46.58
2022-11-15T12:25:30.245Z,46.36
2022-11-15T12:28:30.156Z,46.22
2022-11-15T12:31:13.199Z,45.78
2022-11-15T12:33:46.281Z,46.01
2022-11-15T12:36:22.712Z,45.45
2022-11-15T12:39:08.470Z,45.23
2022-11-15T12:41:41.017Z,45.54
2022-11-15T12:44:15.385Z,45.54
2022-11-15T12:46:42.693Z,45.28
2022-11-15T12:49:27.069Z,44.68
2022-11-15T12:52:00.121Z,45.13
2022-11-15T12:54:31.495Z,44.99
2022-11-15T12:57:04.954Z,44.76
2022-11-15T12:59:51.822Z,45.00
2022-11-15T13:02:39.312Z,45.25
2022-11-15T13:05:21.616Z,45.30
2022-11-15T13:07:48.970Z,45.03
2022-11-15T13:10:32.731Z,44.89
2022-11-15T13:13:03.546Z,45.34
2022-11-15T13:15:47.557Z,45.14
2022-11-15T13:18:34.396Z,45.07
2022-11-15T13:21:23.194Z,45.19
2022-11-15T13:23:57.783Z,44.74
2022-11-15T13:26:26.115Z,44.42
2022-11-15T13:28:56.087Z,44.64
2022-11-15T13:31:36.101Z,44.28
2022-11-15T13:34:52.751Z,44.02
2022-11-15T13:37:23.636Z,44.05
2022-11-15T13:39:51.363Z,43.57
2022-11-15T13:42:21.213Z,44.11
2022-11-15T13:45:04.819Z,43.46
2022-11-15T13:47:33.449Z,43.56
2022-11-15T13:50:02.360Z,43.92
2022-11-15T13:52:34.193Z,43.83
2022-11-15T13:55:14.589Z,43.88
2022-11-15T13:57:45.948Z,43.54
2022-11-15T14:00:37.716Z,43.55
2022-11-15T14:03:16.771Z,43.97
2022-11-15T14:05:44.929Z,43.55
2022-11-15T14:08:21.617Z,43.80
2022-11-15T14:10:52.839Z,43.54
2022-11-15T14:13:32.171Z,44.33
2022-11-15T14:16:21.781Z,45.86
2022-11-15T14:18:51.993Z,49.67
2022-11-15T14:21:21.245Z,53.03
2022-11-15T14:23:50.241Z,55.14
2022-11-15T14:26:33.360Z,55.98
2022-11-15T14:29:24.128Z,56.79
2022-11-15T14:31:51.819Z,57.11
2022-11-15T14:34:19.239Z,57.63
2022-11-15T14:36:47.198Z,57.31
2022-11-15T14:39:14.913Z,57.94
2022-11-15T14:41:42.300Z,58.14
2022-11-15T14:44:19.765Z,57.99
2022-11-15T14:46:47.180Z,57.63
2022-11-15T14:49:17.548Z,57.86
2022-11-15T14:51:45.547Z,56.97
2022-11-15T14:54:18.625Z,57.23
2022-11-15T14:56:50.575Z,57.33
2022-11-15T14:59:19.256Z,56.46
2022-11-15T15:01:46.878Z,56.40
2022-11-15T15:04:15.076Z,56.13
2022-11-15T15:06:43.254Z,56.04
2022-11-15T15:09:11.087Z,55.83
2022-11-15T15:11:38.581Z,56.61
2022-11-15T15:14:09.764Z,56.22
2022-11-15T15:16:37.801Z,56.95
2022-11-15T15:19:05.865Z,57.56
2022-11-15T15:21:37.362Z,57.72
2022-11-15T15:24:05.722Z,58.41
2022-11-15T15:26:37.792Z,58.86
2022-11-15T15:29:05.871Z,58.79
2022-11-15T15:31:34.404Z,59.05
2022-11-15T15:34:02.541Z,59.32
2022-11-15T15:36:29.990Z,59.14
2022-11-15T15:38:57.966Z,59.11
2022-11-15T15:41:25.996Z,59.13
2022-11-15T15:43:53.880Z,58.83
2022-11-15T15:46:23.864Z,58.81
2022-11-15T15:48:51.376Z,58.98
2022-11-15T15:51:20.507Z,59.38
2022-11-15T15:53:49.314Z,59.68
2022-11-15T15:56:18.458Z,59.12
2022-11-15T15:58:48.487Z,59.27
2022-11-15T16:01:16.407Z,58.90
2022-11-15T16:03:43.920Z,58.28
2022-11-15T16:06:35.067Z,58.12
2022-11-15T16:09:19.818Z,57.77
2022-11-15T16:11:48.407Z,57.93
2022-11-15T16:14:16.128Z,56.66
2022-11-15T16:16:43.700Z,55.47
2022-11-15T16:19:17.529Z,55.19
2022-11-15T16:21:48.277Z,55.31
2022-11-15T16:24:16.062Z,55.54
2022-11-15T16:26:44.226Z,56.58
2022-11-15T16:29:12.398Z,57.28
2022-11-15T16:31:40.231Z,57.69
2022-11-15T16:34:08.247Z,57.90
2022-11-15T16:36:36.671Z,58.35
2022-11-15T16:39:05.673Z,58.86
2022-11-15T16:41:35.786Z,59.02
2022-11-15T16:44:10.660Z,60.94
2022-11-15T16:46:39.167Z,59.28
2022-11-15T16:49:10.205Z,59.44
2022-11-15T16:51:38.462Z,59.68
2022-11-15T16:54:06.408Z,59.47
2022-11-15T16:56:34.840Z,59.61
2022-11-15T16:59:08.537Z,59.39
2022-11-15T17:01:47.047Z,59.70
2022-11-15T17:04:16.873Z,59.05
2022-11-15T17:06:46.986Z,59.06
2022-11-15T17:09:19.807Z,58.61
2022-11-15T17:11:48.236Z,58.48
2022-11-15T17:14:18.306Z,58.46
2022-11-15T17:16:46.255Z,58.59
2022-11-15T17:19:19.186Z,58.94
2022-11-15T17:21:49.675Z,58.76
2022-11-15T17:24:17.615Z,58.74
2022-11-15T17:26:45.359Z,58.41
2022-11-15T17:29:13.349Z,58.11
2022-11-15T17:31:42.615Z,58.11
2022-11-15T17:34:11.383Z,58.34
2022-11-15T17:36:44.396Z,58.40
2022-11-15T17:39:12.574Z,58.16
2022-11-15T17:41:40.249Z,57.94
2022-11-15T17:44:07.629Z,58.02
2022-11-15T17:46:36.921Z,57.78
2022-11-15T17:49:04.740Z,57.75
2022-11-15T17:51:38.498Z,57.67
2022-11-15T17:54:06.638Z,57.47
2022-11-15T17:56:34.482Z,57.42
2022-11-15T17:59:07.751Z,57.46
2022-11-15T18:01:45.007Z,57.18
2022-11-15T18:04:18.498Z,57.11
2022-11-15T18:06:47.401Z,57.14
2022-11-15T18:09:15.391Z,57.25
2022-11-15T18:11:46.972Z,57.17
2022-11-15T18:14:16.357Z,56.89
2022-11-15T18:16:44.018Z,56.42
2022-11-15T18:19:14.075Z,55.43
2022-11-15T18:21:59.467Z,55.62
2022-11-15T18:24:36.047Z,54.52
2022-11-15T18:27:05.876Z,54.74
2022-11-15T18:29:37.986Z,54.66
2022-11-15T18:32:21.227Z,54.21
2022-11-15T18:34:50.360Z,54.28
2022-11-15T18:37:17.959Z,54.18
2022-11-15T18:42:39.863Z,53.85
2022-11-15T18:45:08.249Z,53.66
2022-11-15T18:47:35.852Z,53.13
2022-11-15T18:50:04.946Z,53.40
2022-11-15T18:52:33.298Z,53.46
2022-11-15T18:55:01.257Z,52.96
2022-11-15T18:57:31.872Z,53.24
2022-11-15T18:59:59.769Z,53.22
2022-11-15T19:02:28.670Z,53.25
2022-11-15T19:04:59.793Z,53.14
2022-11-15T19:07:27.555Z,53.17
2022-11-15T19:09:56.583Z,53.08
2022-11-15T19:12:24.665Z,52.88
2022-11-15T19:14:56.682Z,53.14
2022-11-15T19:17:24.449Z,53.39
2022-11-15T19:19:51.990Z,54.22
2022-11-15T19:22:21.127Z,58.20
2022-11-15T19:24:48.768Z,55.12
2022-11-15T19:27:16.828Z,53.14
2022-11-15T19:29:44.833Z,53.30
2022-11-15T19:32:38.111Z,53.13
2022-11-15T19:35:06.209Z,52.96
2022-11-15T19:37:40.570Z,53.19
2022-11-15T19:40:11.467Z,53.20
2022-11-15T19:42:39.797Z,53.10
2022-11-15T19:45:09.088Z,53.25
2022-11-15T19:47:36.734Z,53.50
2022-11-15T19:50:25.223Z,53.20
2022-11-15T19:52:53.273Z,53.28
2022-11-15T19:55:21.059Z,53.43
2022-11-15T19:57:49.216Z,53.79
2022-11-15T20:00:17.580Z,53.74
2022-11-15T20:02:45.996Z,53.79
2022-11-15T20:05:18.495Z,53.98
2022-11-15T20:07:55.826Z,53.89
2022-11-15T20:10:39.295Z,53.94
2022-11-15T20:13:36.617Z,54.04
2022-11-15T20:16:24.207Z,53.90
2022-11-15T20:19:03.469Z,54.06
2022-11-15T20:21:37.595Z,54.22
2022-11-15T20:24:08.022Z,54.12
2022-11-15T20:26:37.015Z,54.41
2022-11-15T20:29:10.500Z,54.33
2022-11-15T20:31:41.136Z,54.40
2022-11-15T20:34:09.331Z,54.40
2022-11-15T20:36:36.960Z,54.63
2022-11-15T20:39:04.486Z,54.34
2022-11-15T20:41:32.363Z,54.41
2022-11-15T20:43:59.803Z,54.50
2022-11-15T20:46:27.310Z,54.62
2022-11-15T20:49:02.659Z,54.45
2022-11-15T20:51:30.862Z,54.55
2022-11-15T20:53:58.516Z,54.41
2022-11-15T20:56:31.376Z,54.73
2022-11-15T20:58:58.826Z,54.67
2022-11-15T21:01:26.442Z,54.59
2022-11-15T21:03:57.860Z,54.92
2022-11-15T21:06:26.776Z,54.79
2022-11-15T21:09:16.124Z,54.97
2022-11-15T21:12:02.648Z,54.84
2022-11-15T21:14:30.688Z,54.93
2022-11-15T21:16:58.077Z,55.02
2022-11-15T21:19:29.046Z,55.18
2022-11-15T21:21:59.629Z,55.31
2022-11-15T21:24:29.617Z,55.30
2022-11-15T21:26:57.299Z,55.36
2022-11-15T21:29:25.663Z,55.41
2022-11-15T21:31:54.159Z,55.38
2022-11-15T21:34:23.828Z,55.39
2022-11-15T21:36:59.784Z,55.45
2022-11-15T21:39:27.006Z,55.41
2022-11-15T21:41:54.516Z,55.47
2022-11-15T21:44:22.184Z,56.05
2022-11-15T21:46:50.075Z,56.66
2022-11-15T21:49:22.744Z,56.89
2022-11-15T21:51:50.827Z,57.01
2022-11-15T21:54:19.083Z,57.18
2022-11-15T21:56:47.029Z,57.14
2022-11-15T21:59:15.064Z,57.40
2022-11-15T22:02:03.365Z,57.36
2022-11-15T22:04:31.904Z,57.26
2022-11-15T22:06:59.523Z,57.72
2022-11-15T22:09:27.207Z,57.66
2022-11-15T22:11:59.914Z,57.72
2022-11-15T22:14:27.274Z,57.65
2022-11-15T22:16:55.653Z,57.92
2022-11-15T22:19:23.119Z,57.75
2022-11-15T22:21:50.896Z,57.98
2022-11-15T22:24:19.216Z,57.87
2022-11-15T22:26:46.713Z,57.95
2022-11-15T22:29:14.168Z,57.69
2022-11-15T22:31:41.703Z,57.65
2022-11-15T22:34:09.968Z,57.52
2022-11-15T22:37:05.468Z,57.34
2022-11-15T22:39:27.643Z,57.51
2022-11-15T22:41:55.519Z,57.31
2022-11-15T22:44:23.219Z,57.57
2022-11-15T22:46:51.042Z,57.34
2022-11-15T22:49:19.122Z,57.10
2022-11-15T22:51:50.817Z,57.32
2022-11-15T22:54:18.570Z,57.32
2022-11-15T22:56:46.123Z,57.32
2022-11-15T22:59:13.681Z,57.52
2022-11-15T23:01:46.647Z,57.73
2022-11-15T23:04:15.601Z,57.76
2022-11-15T23:06:44.039Z,57.88
2022-11-15T23:09:14.512Z,58.08
2022-11-15T23:12:00.539Z,58.17
2022-11-15T23:14:28.531Z,58.46
2022-11-15T23:16:56.342Z,58.73
2022-11-15T23:19:24.744Z,58.71
2022-11-15T23:22:10.653Z,58.79
2022-11-15T23:24:38.351Z,58.68
2022-11-15T23:27:07.951Z,59.10
2022-11-15T23:29:55.742Z,58.70
2022-11-15T23:32:43.915Z,58.75
2022-11-15T23:35:13.406Z,58.82
2022-11-15T23:37:41.422Z,58.91
2022-11-15T23:40:12.813Z,58.92
2022-11-15T23:42:40.720Z,59.01
2022-11-15T23:45:11.871Z,58.70
2022-11-15T23:47:39.701Z,58.52
2022-11-15T23:50:08.308Z,58.54
2022-11-15T23:52:36.146Z,58.59
2022-11-15T23:55:04.317Z,58.30
2022-11-15T23:57:31.847Z,58.86
